createdAt,value
2018-08-11T00:01:16.108Z,0.70
2018-08-11T00:03:46.232Z,0.70
2018-08-11T00:06:16.420Z,0.97
2018-08-11T00:08:46.528Z,0.63
2018-08-11T00:11:16.705Z,0.90
2018-08-11T00:13:46.800Z,1.10
2018-08-11T00:16:16.981Z,0.93
2018-08-11T00:18:47.113Z,1.00
2018-08-11T00:21:17.257Z,0.80
2018-08-11T00:23:47.339Z,0.80
2018-08-11T00:26:17.473Z,0.77
2018-08-11T00:28:47.544Z,0.70
2018-08-11T00:31:17.717Z,0.70
2018-08-11T00:33:47.804Z,0.77
2018-08-11T00:36:17.952Z,0.80
2018-08-11T00:38:48.074Z,0.70
2018-08-11T00:41:18.204Z,0.87
2018-08-11T00:43:48.313Z,0.50
2018-08-11T00:46:18.449Z,0.90
2018-08-11T00:48:48.722Z,0.60
2018-08-11T00:51:18.869Z,0.80
2018-08-11T00:53:48.984Z,0.80
2018-08-11T00:56:19.120Z,0.73
2018-08-11T00:58:49.198Z,0.70
2018-08-11T01:01:19.344Z,0.70
2018-08-11T01:03:49.431Z,0.67
2018-08-11T01:06:19.594Z,0.80
2018-08-11T01:08:49.687Z,0.90
2018-08-11T01:11:19.811Z,0.80
2018-08-11T01:13:49.913Z,0.77
2018-08-11T01:16:20.069Z,0.77
2018-08-11T01:18:50.205Z,0.70
2018-08-11T01:21:20.319Z,0.70
2018-08-11T01:23:50.409Z,0.80
2018-08-11T01:26:20.557Z,0.70
2018-08-11T01:28:50.716Z,0.80
2018-08-11T01:31:20.868Z,0.70
2018-08-11T01:33:50.939Z,0.80
2018-08-11T01:36:21.057Z,0.80
2018-08-11T01:38:51.152Z,0.70
2018-08-11T01:41:21.287Z,0.80
2018-08-11T01:43:51.364Z,0.80
2018-08-11T01:46:21.520Z,0.90
2018-08-11T01:48:51.658Z,0.90
2018-08-11T01:51:22.116Z,0.77
2018-08-11T01:53:52.213Z,0.83
2018-08-11T01:56:22.345Z,0.70
2018-08-11T01:58:52.447Z,0.90
2018-08-11T02:01:22.589Z,0.90
2018-08-11T02:03:52.687Z,0.87
2018-08-11T02:06:22.853Z,1.10
2018-08-11T02:08:52.972Z,0.80
2018-08-11T02:11:23.236Z,0.67
2018-08-11T02:13:53.277Z,1.00
2018-08-11T02:16:23.420Z,0.87
2018-08-11T02:18:53.595Z,0.70
2018-08-11T02:21:23.716Z,0.90
2018-08-11T02:23:53.796Z,0.90
2018-08-11T02:26:23.952Z,0.80
2018-08-11T02:28:54.140Z,0.90
2018-08-11T02:31:24.415Z,1.00
2018-08-11T02:33:54.921Z,0.97
2018-08-11T02:36:25.040Z,0.80
2018-08-11T02:38:55.136Z,0.77
2018-08-11T02:41:25.267Z,0.90
2018-08-11T02:43:55.494Z,0.80
2018-08-11T02:46:25.628Z,1.00
2018-08-11T02:48:56.241Z,0.80
2018-08-11T02:51:26.392Z,0.80
2018-08-11T02:53:56.512Z,0.80
2018-08-11T02:56:26.684Z,2.93
2018-08-11T02:58:56.831Z,0.90
2018-08-11T03:01:27.020Z,0.77
2018-08-11T03:03:57.158Z,0.83
2018-08-11T03:06:27.331Z,0.80
2018-08-11T03:08:57.556Z,1.13
2018-08-11T03:11:27.740Z,0.80
2018-08-11T03:13:57.903Z,0.80
2018-08-11T03:16:28.035Z,0.73
2018-08-11T03:18:58.549Z,0.80
2018-08-11T03:21:28.720Z,0.80
2018-08-11T03:23:58.836Z,0.80
2018-08-11T03:26:29.025Z,1.00
2018-08-11T03:28:59.180Z,0.80
2018-08-11T03:31:29.304Z,0.83
2018-08-11T03:33:59.464Z,1.10
2018-08-11T03:36:29.596Z,0.70
2018-08-11T03:38:59.759Z,0.90
2018-08-11T03:41:29.883Z,0.90
2018-08-11T03:44:00.060Z,0.60
2018-08-11T03:46:30.168Z,0.90
2018-08-11T03:49:00.365Z,0.80
2018-08-11T03:51:30.476Z,0.90
2018-08-11T03:54:00.640Z,0.80
2018-08-11T03:56:30.991Z,0.90
2018-08-11T03:59:01.140Z,0.97
2018-08-11T04:01:31.288Z,0.90
2018-08-11T04:04:01.438Z,0.93
2018-08-11T04:06:31.586Z,0.70
2018-08-11T04:09:02.180Z,0.80
2018-08-11T04:11:32.291Z,0.90
2018-08-11T04:14:02.476Z,0.77
2018-08-11T04:16:32.596Z,0.90
2018-08-11T04:19:02.764Z,0.83
2018-08-11T04:21:32.939Z,0.77
2018-08-11T04:24:03.107Z,0.73
2018-08-11T04:26:33.239Z,1.00
2018-08-11T04:29:03.417Z,0.90
2018-08-11T04:31:33.529Z,1.10
2018-08-11T04:34:03.679Z,1.10
2018-08-11T04:36:33.783Z,0.90
2018-08-11T04:39:04.092Z,1.00
2018-08-11T04:41:34.313Z,0.60
2018-08-11T04:44:04.497Z,0.77
2018-08-11T04:46:35.064Z,1.17
2018-08-11T04:49:05.526Z,0.90
2018-08-11T04:51:35.617Z,0.90
2018-08-11T04:54:05.788Z,0.73
2018-08-11T04:56:35.999Z,0.80
2018-08-11T04:59:06.233Z,0.80
2018-08-11T05:01:36.353Z,1.07
2018-08-11T05:04:06.525Z,0.97
2018-08-11T05:06:36.649Z,1.17
2018-08-11T05:09:08.865Z,1.00
2018-08-11T05:11:39.036Z,0.83
2018-08-11T05:14:09.277Z,1.23
2018-08-11T05:16:39.480Z,0.80
2018-08-11T05:19:09.620Z,0.80
2018-08-11T05:21:39.740Z,1.10
2018-08-11T05:24:09.907Z,0.90
2018-08-11T05:26:40.069Z,0.80
2018-08-11T05:29:10.292Z,0.70
2018-08-11T05:31:40.438Z,1.00
2018-08-11T05:34:11.931Z,0.90
2018-08-11T05:36:45.501Z,0.80
2018-08-11T05:39:18.383Z,0.70
2018-08-11T05:41:49.847Z,0.97
2018-08-11T05:44:23.568Z,1.03
2018-08-11T05:46:53.648Z,0.87
2018-08-11T05:49:24.969Z,0.80
2018-08-11T05:51:55.147Z,0.77
2018-08-11T05:54:25.436Z,0.77
2018-08-11T05:56:55.524Z,0.80
2018-08-11T05:59:25.729Z,0.90
2018-08-11T06:01:55.826Z,0.90
2018-08-11T06:04:26.035Z,1.00
2018-08-11T06:06:56.112Z,0.90
2018-08-11T06:09:26.296Z,0.80
2018-08-11T06:11:56.379Z,0.80
2018-08-11T06:14:26.511Z,0.70
2018-08-11T06:16:56.599Z,0.80
2018-08-11T06:19:26.767Z,0.80
2018-08-11T06:21:57.167Z,0.80
2018-08-11T06:24:27.303Z,0.80
2018-08-11T06:26:57.394Z,1.17
2018-08-11T06:29:27.547Z,0.60
2018-08-11T06:31:57.737Z,0.87
2018-08-11T06:34:27.804Z,0.90
2018-08-11T06:36:57.882Z,0.70
2018-08-11T06:39:28.059Z,1.30
2018-08-11T06:41:58.142Z,0.93
2018-08-11T06:44:28.269Z,0.87
2018-08-11T06:46:58.723Z,0.90
2018-08-11T06:49:28.991Z,0.90
2018-08-11T06:51:59.104Z,1.10
2018-08-11T06:54:29.295Z,0.70
2018-08-11T06:57:00.053Z,0.90
2018-08-11T06:59:30.189Z,0.70
2018-08-11T07:02:00.721Z,0.90
2018-08-11T07:04:30.887Z,1.00
2018-08-11T07:07:01.155Z,1.00
2018-08-11T07:09:31.296Z,0.90
2018-08-11T07:12:01.404Z,1.27
2018-08-11T07:14:31.576Z,1.10
2018-08-11T07:17:01.692Z,1.00
2018-08-11T07:19:31.851Z,1.10
2018-08-11T07:22:01.969Z,0.90
2018-08-11T07:24:32.069Z,0.97
2018-08-11T07:27:02.196Z,1.27
2018-08-11T07:29:32.295Z,0.70
2018-08-11T07:32:02.416Z,1.10
2018-08-11T07:34:32.524Z,0.90
2018-08-11T07:37:02.662Z,1.00
2018-08-11T07:39:32.782Z,1.03
2018-08-11T07:42:02.993Z,1.07
2018-08-11T07:44:33.111Z,1.23
2018-08-11T07:47:03.381Z,0.90
2018-08-11T07:49:33.551Z,1.00
2018-08-11T07:52:03.740Z,1.10
2018-08-11T07:54:33.865Z,1.07
2018-08-11T07:57:04.026Z,1.00
2018-08-11T07:59:34.145Z,1.10
2018-08-11T08:02:04.373Z,1.17
2018-08-11T08:04:34.495Z,1.13
2018-08-11T08:07:04.672Z,1.17
2018-08-11T08:09:34.846Z,1.10
2018-08-11T08:12:05.120Z,1.20
2018-08-11T08:14:35.235Z,0.83
2018-08-11T08:17:05.426Z,1.30
2018-08-11T08:19:35.589Z,1.03
2018-08-11T08:22:05.802Z,0.97
2018-08-11T08:24:35.939Z,1.30
2018-08-11T08:27:06.102Z,0.97
2018-08-11T08:29:36.270Z,1.30
2018-08-11T08:32:06.540Z,1.10
2018-08-11T08:34:36.670Z,0.90
2018-08-11T08:37:06.894Z,1.60
2018-08-11T08:39:37.000Z,1.20
2018-08-11T08:42:07.212Z,1.20
2018-08-11T08:44:37.343Z,1.30
2018-08-11T08:47:07.516Z,1.20
2018-08-11T08:49:37.656Z,1.40
2018-08-11T08:52:07.881Z,1.20
2018-08-11T08:54:37.971Z,1.37
2018-08-11T08:57:08.205Z,1.30
2018-08-11T08:59:38.328Z,1.20
2018-08-11T09:02:08.502Z,2.00
2018-08-11T09:04:38.603Z,1.37
2018-08-11T09:07:08.751Z,1.50
2018-08-11T09:09:38.852Z,1.30
2018-08-11T09:12:08.995Z,1.30
2018-08-11T09:14:39.155Z,1.40
2018-08-11T09:17:09.308Z,1.63
2018-08-11T09:19:39.392Z,1.40
2018-08-11T09:22:09.544Z,1.20
2018-08-11T09:24:39.631Z,1.10
2018-08-11T09:27:09.804Z,1.17
2018-08-11T09:29:40.025Z,1.30
2018-08-11T09:32:10.313Z,1.37
2018-08-11T09:34:40.506Z,1.10
2018-08-11T09:37:10.659Z,1.10
2018-08-11T09:39:40.763Z,1.30
2018-08-11T09:42:10.934Z,1.43
2018-08-11T09:44:41.110Z,0.90
2018-08-11T09:47:11.328Z,0.97
2018-08-11T09:49:41.449Z,1.03
2018-08-11T09:52:12.295Z,0.80
2018-08-11T09:54:42.465Z,0.80
2018-08-11T09:57:12.544Z,0.97
2018-08-11T09:59:42.956Z,0.70
2018-08-11T10:02:17.724Z,0.80
2018-08-11T10:04:48.015Z,1.00
2018-08-11T10:07:18.167Z,0.73
2018-08-11T10:09:48.324Z,0.90
2018-08-11T10:12:18.421Z,0.63
2018-08-11T10:14:48.912Z,0.60
2018-08-11T10:17:19.015Z,0.57
2018-08-11T10:19:49.309Z,0.70
2018-08-11T10:22:19.399Z,0.60
2018-08-11T10:24:49.699Z,0.50
2018-08-11T10:27:19.886Z,0.60
2018-08-11T10:29:50.150Z,0.70
2018-08-11T10:32:20.291Z,0.77
2018-08-11T10:34:50.546Z,0.50
2018-08-11T10:37:20.667Z,0.70
2018-08-11T10:39:51.001Z,0.73
2018-08-11T10:42:21.158Z,0.70
2018-08-11T10:44:51.381Z,0.60
2018-08-11T10:47:21.615Z,0.70
2018-08-11T10:49:51.824Z,0.80
2018-08-11T10:52:21.938Z,0.80
2018-08-11T10:54:52.123Z,0.70
2018-08-11T10:57:22.256Z,0.70
2018-08-11T10:59:52.465Z,0.80
2018-08-11T11:02:22.664Z,0.60
2018-08-11T11:04:52.852Z,0.87
2018-08-11T11:07:22.997Z,0.70
2018-08-11T11:09:53.196Z,0.60
2018-08-11T11:12:23.295Z,0.53
2018-08-11T11:14:53.504Z,0.60
2018-08-11T11:17:23.721Z,1.17
2018-08-11T11:19:53.841Z,0.70
2018-08-11T11:22:24.031Z,0.70
2018-08-11T11:24:54.228Z,0.87
2018-08-11T11:27:24.355Z,0.70
2018-08-11T11:29:54.463Z,0.70
2018-08-11T11:32:24.696Z,0.60
2018-08-11T11:34:54.911Z,0.60
2018-08-11T11:37:25.162Z,0.70
2018-08-11T11:39:55.272Z,0.80
2018-08-11T11:42:25.479Z,0.70
2018-08-11T11:44:55.705Z,0.70
2018-08-11T11:47:25.944Z,0.90
2018-08-11T11:49:56.214Z,0.60
2018-08-11T11:52:26.425Z,0.60
2018-08-11T11:54:56.723Z,0.53
2018-08-11T11:57:26.931Z,0.73
2018-08-11T11:59:57.343Z,0.67
2018-08-11T12:02:27.614Z,0.63
2018-08-11T12:04:57.949Z,0.80
2018-08-11T12:07:28.213Z,0.60
2018-08-11T12:09:58.363Z,0.60
2018-08-11T12:12:28.600Z,0.70
2018-08-11T12:14:58.788Z,0.53
2018-08-11T12:17:29.061Z,0.70
2018-08-11T12:19:59.261Z,0.80
2018-08-11T12:22:29.504Z,0.70
2018-08-11T12:24:59.785Z,0.80
2018-08-11T12:27:30.029Z,0.70
2018-08-11T12:30:00.172Z,0.80
2018-08-11T12:32:30.398Z,0.80
2018-08-11T12:35:00.784Z,0.70
2018-08-11T12:37:31.037Z,0.70
2018-08-11T12:40:01.677Z,0.60
2018-08-11T12:42:31.921Z,0.70
2018-08-11T12:45:02.208Z,0.80
2018-08-11T12:47:32.509Z,0.60
2018-08-11T12:50:02.669Z,0.70
2018-08-11T12:52:32.891Z,0.70
2018-08-11T12:55:03.085Z,0.70
2018-08-11T12:57:33.236Z,0.63
2018-08-11T13:00:03.472Z,0.80
2018-08-11T13:02:33.632Z,0.90
2018-08-11T13:05:03.819Z,0.80
2018-08-11T13:07:34.100Z,0.70
2018-08-11T13:10:04.544Z,1.10
2018-08-11T13:12:34.793Z,0.77
2018-08-11T13:15:05.612Z,0.80
2018-08-11T13:17:35.775Z,0.80
2018-08-11T13:20:07.048Z,0.83
2018-08-11T13:22:37.412Z,0.60
2018-08-11T13:25:07.624Z,0.70
2018-08-11T13:27:37.805Z,0.93
2018-08-11T13:30:09.297Z,0.70
2018-08-11T13:32:39.480Z,0.90
2018-08-11T13:35:09.696Z,0.90
2018-08-11T13:37:39.916Z,0.87
2018-08-11T13:40:10.139Z,1.07
2018-08-11T13:42:40.324Z,0.80
2018-08-11T13:45:10.488Z,0.90
2018-08-11T13:47:40.722Z,0.80
2018-08-11T13:50:10.939Z,1.07
2018-08-11T13:52:41.093Z,0.80
2018-08-11T13:55:11.392Z,0.80
2018-08-11T13:57:41.517Z,0.93
2018-08-11T14:00:11.939Z,0.83
2018-08-11T14:02:42.061Z,0.90
2018-08-11T14:05:12.227Z,0.97
2018-08-11T14:07:42.388Z,1.10
2018-08-11T14:10:12.660Z,0.90
2018-08-11T14:12:42.852Z,0.80
2018-08-11T14:15:12.936Z,0.93
2018-08-11T14:17:43.116Z,1.00
2018-08-11T14:20:13.238Z,1.30
2018-08-11T14:22:43.628Z,0.90
2018-08-11T14:25:13.744Z,1.00
2018-08-11T14:27:44.068Z,1.10
2018-08-11T14:30:14.192Z,0.90
2018-08-11T14:32:44.510Z,0.87
2018-08-11T14:35:14.636Z,0.90
2018-08-11T14:37:44.852Z,0.90
2018-08-11T14:40:14.968Z,0.80
2018-08-11T14:42:50.113Z,1.37
2018-08-11T14:45:21.108Z,1.10
2018-08-11T14:47:51.356Z,0.97
2018-08-11T14:50:21.443Z,0.67
2018-08-11T14:52:51.572Z,0.90
2018-08-11T14:55:21.672Z,1.07
2018-08-11T14:57:51.865Z,0.90
2018-08-11T15:00:21.980Z,0.80
2018-08-11T15:02:52.108Z,0.80
2018-08-11T15:05:22.544Z,0.80
2018-08-11T15:07:53.920Z,0.83
2018-08-11T15:10:25.265Z,0.87
2018-08-11T15:12:55.397Z,0.80
2018-08-11T15:15:25.527Z,1.10
2018-08-11T15:17:55.776Z,1.57
2018-08-11T15:20:25.922Z,1.00
2018-08-11T15:22:56.126Z,0.90
2018-08-11T15:25:26.782Z,1.20
2018-08-11T15:27:57.101Z,1.30
2018-08-11T15:30:28.183Z,1.63
2018-08-11T15:32:58.372Z,1.40
2018-08-11T15:35:29.203Z,1.20
2018-08-11T15:38:00.782Z,1.03
2018-08-11T15:40:31.592Z,1.00
2018-08-11T15:43:01.831Z,1.03
2018-08-11T15:45:31.968Z,1.20
2018-08-11T15:48:03.605Z,1.53
2018-08-11T15:50:33.830Z,1.10
2018-08-11T15:53:03.980Z,0.90
2018-08-11T15:55:34.172Z,1.20
2018-08-11T15:58:04.268Z,0.90
2018-08-11T16:00:36.628Z,1.07
2018-08-11T16:03:07.007Z,1.23
2018-08-11T16:05:37.329Z,1.20
2018-08-11T16:08:07.524Z,1.00
2018-08-11T16:10:37.732Z,1.47
2018-08-11T16:13:07.928Z,1.43
2018-08-11T16:15:38.116Z,1.30
2018-08-11T16:18:08.412Z,1.00
2018-08-11T16:20:38.516Z,1.10
2018-08-11T16:23:08.636Z,1.03
2018-08-11T16:25:38.785Z,0.97
2018-08-11T16:28:09.151Z,0.97
2018-08-11T16:30:39.224Z,0.80
2018-08-11T16:33:09.373Z,1.70
2018-08-11T16:35:39.459Z,1.00
2018-08-11T16:38:09.840Z,0.83
2018-08-11T16:40:39.933Z,0.97
2018-08-11T16:43:10.061Z,0.80
2018-08-11T16:45:40.148Z,0.90
2018-08-11T16:48:10.334Z,0.80
2018-08-11T16:50:40.462Z,0.90
2018-08-11T16:53:10.674Z,0.90
2018-08-11T16:55:40.842Z,0.80
2018-08-11T16:58:10.992Z,0.70
2018-08-11T17:00:41.109Z,0.80
2018-08-11T17:03:11.268Z,1.03
2018-08-11T17:05:41.459Z,0.70
2018-08-11T17:08:11.592Z,0.73
2018-08-11T17:10:41.727Z,0.70
2018-08-11T17:13:11.804Z,1.00
2018-08-11T17:15:41.972Z,0.93
2018-08-11T17:18:12.090Z,0.90
2018-08-11T17:20:42.251Z,0.83
2018-08-11T17:23:12.400Z,0.63
2018-08-11T17:25:42.540Z,0.90
2018-08-11T17:28:12.627Z,0.57
2018-08-11T17:30:42.753Z,0.77
2018-08-11T17:33:12.846Z,0.73
2018-08-11T17:35:42.982Z,0.77
2018-08-11T17:38:13.207Z,0.90
2018-08-11T17:40:43.352Z,0.80
2018-08-11T17:43:13.524Z,0.70
2018-08-11T17:45:43.697Z,0.90
2018-08-11T17:48:14.009Z,1.27
2018-08-11T17:50:44.271Z,1.67
2018-08-11T17:53:14.352Z,1.60
2018-08-11T17:55:44.596Z,1.20
2018-08-11T17:58:14.737Z,1.23
2018-08-11T18:00:44.868Z,1.10
2018-08-11T18:03:14.935Z,1.00
2018-08-11T18:05:45.181Z,0.83
2018-08-11T18:08:15.260Z,1.00
2018-08-11T18:10:45.388Z,0.90
2018-08-11T18:13:15.476Z,1.07
2018-08-11T18:15:45.608Z,0.90
2018-08-11T18:18:15.688Z,0.90
2018-08-11T18:20:45.852Z,1.00
2018-08-11T18:23:15.934Z,1.10
2018-08-11T18:25:46.103Z,1.03
2018-08-11T18:28:16.239Z,1.10
2018-08-11T18:30:46.441Z,1.10
2018-08-11T18:33:16.607Z,1.23
2018-08-11T18:35:46.765Z,1.00
2018-08-11T18:38:16.867Z,1.33
2018-08-11T18:40:47.040Z,1.30
2018-08-11T18:43:17.175Z,1.40
2018-08-11T18:45:47.329Z,1.30
2018-08-11T18:48:17.463Z,1.17
2018-08-11T18:50:47.608Z,1.33
2018-08-11T18:53:17.771Z,1.13
2018-08-11T18:55:47.993Z,0.90
2018-08-11T18:58:18.120Z,1.03
2018-08-11T19:00:48.342Z,0.90
2018-08-11T19:03:18.955Z,0.90
2018-08-11T19:05:49.101Z,1.07
2018-08-11T19:08:19.278Z,0.87
2018-08-11T19:10:49.450Z,1.10
2018-08-11T19:13:19.604Z,0.90
2018-08-11T19:15:49.781Z,0.90
2018-08-11T19:18:20.435Z,0.87
2018-08-11T19:20:50.520Z,0.93
2018-08-11T19:23:20.647Z,0.83
2018-08-11T19:25:50.772Z,0.80
2018-08-11T19:28:21.080Z,1.00
2018-08-11T19:30:51.168Z,0.90
2018-08-11T19:33:21.313Z,0.90
2018-08-11T19:35:51.416Z,0.90
2018-08-11T19:38:21.585Z,0.90
2018-08-11T19:40:51.701Z,0.90
2018-08-11T19:43:21.827Z,1.00
2018-08-11T19:45:51.976Z,0.93
2018-08-11T19:48:22.116Z,0.83
2018-08-11T19:50:52.276Z,1.00
2018-08-11T19:53:22.416Z,1.00
2018-08-11T19:55:52.568Z,0.87
2018-08-11T19:58:22.840Z,0.90
2018-08-11T20:00:53.026Z,1.10
2018-08-11T20:03:23.148Z,1.20
2018-08-11T20:05:53.376Z,0.97
2018-08-11T20:08:23.740Z,1.10
2018-08-11T20:10:53.881Z,1.33
2018-08-11T20:13:24.040Z,2.03
2018-08-11T20:15:54.197Z,2.00
2018-08-11T20:18:24.292Z,1.70
2018-08-11T20:20:54.504Z,1.70
2018-08-11T20:23:24.639Z,1.07
2018-08-11T20:25:54.800Z,2.00
2018-08-11T20:28:24.892Z,1.60
2018-08-11T20:30:55.024Z,1.73
2018-08-11T20:33:25.104Z,1.60
2018-08-11T20:35:55.307Z,1.93
2018-08-11T20:38:25.470Z,3.27
2018-08-11T20:40:55.793Z,4.07
2018-08-11T20:43:26.656Z,3.23
2018-08-11T20:45:56.960Z,2.47
2018-08-11T20:48:27.109Z,3.30
2018-08-11T20:50:57.316Z,5.00
2018-08-11T20:53:27.395Z,4.97
2018-08-11T20:55:57.535Z,3.97
2018-08-11T20:58:27.624Z,3.17
2018-08-11T21:00:57.768Z,2.33
2018-08-11T21:03:27.906Z,3.33
2018-08-11T21:05:58.065Z,3.70
2018-08-11T21:08:28.171Z,3.17
2018-08-11T21:10:58.309Z,2.90
2018-08-11T21:13:28.400Z,2.20
2018-08-11T21:15:58.535Z,1.80
2018-08-11T21:18:28.616Z,1.60
2018-08-11T21:20:58.774Z,1.60
2018-08-11T21:23:28.983Z,1.30
2018-08-11T21:25:59.167Z,1.73
2018-08-11T21:28:29.319Z,1.63
2018-08-11T21:30:59.447Z,1.50
2018-08-11T21:33:29.579Z,1.73
2018-08-11T21:35:59.667Z,1.50
2018-08-11T21:38:29.797Z,1.80
2018-08-11T21:40:59.992Z,1.60
2018-08-11T21:43:30.148Z,1.40
2018-08-11T21:46:00.644Z,1.30
2018-08-11T21:48:30.913Z,1.73
2018-08-11T21:51:01.000Z,1.30
2018-08-11T21:53:31.109Z,1.70
2018-08-11T21:56:01.228Z,1.50
2018-08-11T21:58:31.373Z,1.63
2018-08-11T22:01:15.296Z,2.10
2018-08-11T22:03:46.984Z,2.30
2018-08-11T22:06:17.112Z,1.90
2018-08-11T22:08:47.293Z,1.90
2018-08-11T22:11:17.396Z,1.87
2018-08-11T22:13:47.552Z,1.60
2018-08-11T22:16:17.653Z,1.83
2018-08-11T22:18:47.818Z,1.80
2018-08-11T22:21:17.897Z,1.90
2018-08-11T22:23:48.043Z,1.43
2018-08-11T22:26:18.140Z,1.70
2018-08-11T22:28:48.305Z,1.67
2018-08-11T22:31:18.395Z,1.50
2018-08-11T22:33:48.600Z,1.27
2018-08-11T22:36:18.722Z,1.47
2018-08-11T22:38:48.888Z,1.20
2018-08-11T22:41:18.982Z,1.70
2018-08-11T22:43:49.137Z,1.60
2018-08-11T22:46:19.254Z,1.80
2018-08-11T22:48:49.436Z,1.80
2018-08-11T22:51:19.543Z,1.50
2018-08-11T22:53:49.709Z,1.73
2018-08-11T22:56:19.852Z,1.80
2018-08-11T22:58:50.009Z,1.53
2018-08-11T23:01:20.129Z,1.70
2018-08-11T23:03:50.303Z,1.30
2018-08-11T23:06:20.386Z,1.60
2018-08-11T23:08:50.539Z,1.10
2018-08-11T23:11:20.628Z,1.47
2018-08-11T23:13:51.373Z,2.00
2018-08-11T23:16:22.284Z,1.20
2018-08-11T23:18:52.759Z,1.70
2018-08-11T23:21:22.836Z,1.47
2018-08-11T23:23:53.000Z,1.37
2018-08-11T23:26:23.076Z,1.13
2018-08-11T23:28:53.219Z,1.83
2018-08-11T23:31:23.317Z,1.43
2018-08-11T23:33:53.460Z,1.60
2018-08-11T23:36:23.561Z,1.30
2018-08-11T23:38:53.711Z,1.20
2018-08-11T23:41:23.811Z,1.53
2018-08-11T23:43:53.967Z,1.10
2018-08-11T23:46:24.041Z,1.60
2018-08-11T23:48:54.223Z,1.23
2018-08-11T23:51:24.332Z,1.40
2018-08-11T23:53:54.484Z,1.20
2018-08-11T23:56:24.581Z,1.13
2018-08-11T23:58:54.716Z,1.30
